createdAt,value
2018-05-21T00:00:46.215Z,47.94
2018-05-21T00:01:49.530Z,47.99
2018-05-21T00:02:52.837Z,48.04
2018-05-21T00:03:56.211Z,48.05
2018-05-21T00:04:59.502Z,48.08
2018-05-21T00:06:02.818Z,48.16
2018-05-21T00:07:06.116Z,48.21
2018-05-21T00:08:09.477Z,48.21
2018-05-21T00:09:12.763Z,48.25
2018-05-21T00:10:16.120Z,48.29
2018-05-21T00:11:19.421Z,48.34
2018-05-21T00:12:22.958Z,48.46
2018-05-21T00:13:26.266Z,48.54
2018-05-21T00:14:29.635Z,48.56
2018-05-21T00:15:33.005Z,48.57
2018-05-21T00:16:36.355Z,48.63
2018-05-21T00:17:39.636Z,48.69
2018-05-21T00:18:42.961Z,48.69
2018-05-21T00:19:46.343Z,48.73
2018-05-21T00:20:49.650Z,48.74
2018-05-21T00:21:52.997Z,48.69
2018-05-21T00:22:56.299Z,48.63
2018-05-21T00:23:59.604Z,48.61
2018-05-21T00:25:02.936Z,48.66
2018-05-21T00:26:06.248Z,48.67
2018-05-21T00:27:09.548Z,48.68
2018-05-21T00:28:12.867Z,48.73
2018-05-21T00:29:16.175Z,48.76
2018-05-21T00:30:19.528Z,48.81
2018-05-21T00:31:22.844Z,48.85
2018-05-21T00:32:26.160Z,48.90
2018-05-21T00:33:29.463Z,48.94
2018-05-21T00:34:32.774Z,48.96
2018-05-21T00:35:36.099Z,49.03
2018-05-21T00:36:39.406Z,49.08
2018-05-21T00:37:42.707Z,49.14
2018-05-21T00:38:46.018Z,49.21
2018-05-21T00:39:49.314Z,49.27
2018-05-21T00:40:52.670Z,49.32
2018-05-21T00:41:55.987Z,49.40
2018-05-21T00:42:59.306Z,49.47
2018-05-21T00:44:02.612Z,49.55
2018-05-21T00:45:05.925Z,49.63
2018-05-21T00:46:09.243Z,49.66
2018-05-21T00:47:12.544Z,49.69
2018-05-21T00:48:15.851Z,49.69
2018-05-21T00:49:19.219Z,49.78
2018-05-21T00:50:22.599Z,49.81
2018-05-21T00:51:26.004Z,49.84
2018-05-21T00:52:29.303Z,49.90
2018-05-21T00:53:32.797Z,49.97
2018-05-21T00:54:36.084Z,50.01
2018-05-21T00:55:39.403Z,50.06
2018-05-21T00:56:42.743Z,50.10
2018-05-21T00:57:46.067Z,50.13
2018-05-21T00:58:49.378Z,50.15
2018-05-21T00:59:52.684Z,50.20
2018-05-21T01:00:55.986Z,50.24
2018-05-21T01:01:59.309Z,50.28
2018-05-21T01:03:02.621Z,50.31
2018-05-21T01:04:05.936Z,50.36
2018-05-21T01:05:09.240Z,50.40
2018-05-21T01:06:12.570Z,50.42
2018-05-21T01:07:15.888Z,50.47
2018-05-21T01:08:19.199Z,50.52
2018-05-21T01:09:22.508Z,50.57
2018-05-21T01:10:25.903Z,50.62
2018-05-21T01:11:29.192Z,50.68
2018-05-21T01:12:32.588Z,50.73
2018-05-21T01:13:35.978Z,50.76
2018-05-21T01:14:39.203Z,50.81
2018-05-21T01:15:42.598Z,50.87
2018-05-21T01:16:45.854Z,50.92
2018-05-21T01:17:49.197Z,50.95
2018-05-21T01:18:52.486Z,50.99
2018-05-21T01:19:55.795Z,51.02
2018-05-21T01:20:59.095Z,51.06
2018-05-21T01:22:02.393Z,51.12
2018-05-21T01:23:05.736Z,51.17
2018-05-21T01:24:09.047Z,51.22
2018-05-21T01:25:12.365Z,51.27
2018-05-21T01:26:15.675Z,51.32
2018-05-21T01:27:19.012Z,51.35
2018-05-21T01:28:22.369Z,51.38
2018-05-21T01:29:25.651Z,51.37
2018-05-21T01:30:28.954Z,51.39
2018-05-21T01:31:32.276Z,51.40
2018-05-21T01:32:35.593Z,51.41
2018-05-21T01:33:38.937Z,51.41
2018-05-21T01:34:42.255Z,51.42
2018-05-21T01:35:45.570Z,51.44
2018-05-21T01:36:48.879Z,51.45
2018-05-21T01:37:52.200Z,51.47
2018-05-21T01:38:55.519Z,51.47
2018-05-21T01:39:58.827Z,51.51
2018-05-21T01:41:02.145Z,51.54
2018-05-21T01:42:05.454Z,51.56
2018-05-21T01:43:08.750Z,51.59
2018-05-21T01:44:12.087Z,51.60
2018-05-21T01:45:15.391Z,51.62
2018-05-21T01:46:18.690Z,51.66
2018-05-21T01:47:22.008Z,51.71
2018-05-21T01:48:25.306Z,51.72
2018-05-21T01:49:28.646Z,51.75
2018-05-21T01:50:31.953Z,51.78
2018-05-21T01:51:35.306Z,51.81
2018-05-21T01:52:38.640Z,51.84
2018-05-21T01:53:41.960Z,51.83
2018-05-21T01:54:45.317Z,51.84
2018-05-21T01:55:48.633Z,51.84
2018-05-21T01:56:51.943Z,51.84
2018-05-21T01:57:55.252Z,51.84
2018-05-21T01:58:58.558Z,51.81
2018-05-21T02:00:01.898Z,51.83
2018-05-21T02:01:05.217Z,51.82
2018-05-21T02:02:08.536Z,51.82
2018-05-21T02:03:11.847Z,51.84
2018-05-21T02:04:15.160Z,51.84
2018-05-21T02:05:18.500Z,51.86
2018-05-21T02:06:21.803Z,51.89
2018-05-21T02:07:25.127Z,51.93
2018-05-21T02:08:28.476Z,51.93
2018-05-21T02:09:31.740Z,51.96
2018-05-21T02:10:35.088Z,51.98
2018-05-21T02:11:38.397Z,52.03
2018-05-21T02:12:41.992Z,52.05
2018-05-21T02:13:45.678Z,52.07
2018-05-21T02:14:48.970Z,52.08
2018-05-21T02:15:52.302Z,52.10
2018-05-21T02:16:55.635Z,52.16
2018-05-21T02:17:58.940Z,52.21
2018-05-21T02:19:02.257Z,52.24
2018-05-21T02:20:05.599Z,52.30
2018-05-21T02:21:08.909Z,52.34
2018-05-21T02:22:12.231Z,52.41
2018-05-21T02:23:15.538Z,52.41
2018-05-21T02:24:18.844Z,52.40
2018-05-21T02:25:22.164Z,52.41
2018-05-21T02:26:25.507Z,52.42
2018-05-21T02:27:28.823Z,52.42
2018-05-21T02:28:32.118Z,52.44
2018-05-21T02:29:35.430Z,52.46
2018-05-21T02:30:38.744Z,52.46
2018-05-21T02:31:42.088Z,52.49
2018-05-21T02:32:45.408Z,52.42
2018-05-21T02:33:48.708Z,52.39
2018-05-21T02:34:52.010Z,52.38
2018-05-21T02:35:55.319Z,52.34
2018-05-21T02:36:58.676Z,52.33
2018-05-21T02:38:02.000Z,52.32
2018-05-21T02:39:06.145Z,52.34
2018-05-21T02:40:09.457Z,52.36
2018-05-21T02:41:12.952Z,52.38
2018-05-21T02:42:16.304Z,52.38
2018-05-21T02:43:19.618Z,52.37
2018-05-21T02:44:22.969Z,52.36
2018-05-21T02:45:26.279Z,52.30
2018-05-21T02:46:29.587Z,52.29
2018-05-21T02:47:33.011Z,52.31
2018-05-21T02:48:36.356Z,52.40
2018-05-21T02:49:39.680Z,52.39
2018-05-21T02:50:42.987Z,52.42
2018-05-21T02:51:46.290Z,52.47
2018-05-21T02:52:49.619Z,52.51
2018-05-21T02:53:52.997Z,52.51
2018-05-21T02:54:56.298Z,52.55
2018-05-21T02:55:59.607Z,52.59
2018-05-21T02:57:02.911Z,52.63
2018-05-21T02:58:06.246Z,52.66
2018-05-21T02:59:09.552Z,52.69
2018-05-21T03:00:12.868Z,52.73
2018-05-21T03:01:16.200Z,52.73
2018-05-21T03:02:19.511Z,52.75
2018-05-21T03:03:22.850Z,52.79
2018-05-21T03:04:26.150Z,52.84
2018-05-21T03:05:29.471Z,52.88
2018-05-21T03:06:32.767Z,52.90
2018-05-21T03:07:36.069Z,52.91
2018-05-21T03:08:39.410Z,52.93
2018-05-21T03:09:42.713Z,52.93
2018-05-21T03:10:46.078Z,52.95
2018-05-21T03:11:49.387Z,52.97
2018-05-21T03:12:52.841Z,52.99
2018-05-21T03:13:56.171Z,52.92
2018-05-21T03:14:59.479Z,52.90
2018-05-21T03:16:02.806Z,52.90
2018-05-21T03:17:06.112Z,52.91
2018-05-21T03:18:09.418Z,52.92
2018-05-21T03:19:12.759Z,52.94
2018-05-21T03:20:16.065Z,52.95
2018-05-21T03:21:19.370Z,52.96
2018-05-21T03:22:22.723Z,52.97
2018-05-21T03:23:26.044Z,52.97
2018-05-21T03:24:29.367Z,52.97
2018-05-21T03:25:32.673Z,52.99
2018-05-21T03:26:35.995Z,53.01
2018-05-21T03:27:39.304Z,53.02
2018-05-21T03:28:42.613Z,53.03
2018-05-21T03:29:46.044Z,53.01
2018-05-21T03:30:49.338Z,53.03
2018-05-21T03:31:52.655Z,53.01
2018-05-21T03:32:55.960Z,53.01
2018-05-21T03:33:59.455Z,53.03
2018-05-21T03:35:02.794Z,53.04
2018-05-21T03:36:06.109Z,53.05
2018-05-21T03:37:09.426Z,53.06
2018-05-21T03:38:12.799Z,53.08
2018-05-21T03:39:16.110Z,53.10
2018-05-21T03:40:19.568Z,53.11
2018-05-21T03:41:22.871Z,53.11
2018-05-21T03:42:26.201Z,53.09
2018-05-21T03:43:29.516Z,53.08
2018-05-21T03:44:32.831Z,53.08
2018-05-21T03:45:36.182Z,53.04
2018-05-21T03:46:39.508Z,53.04
2018-05-21T03:47:42.826Z,53.01
2018-05-21T03:48:46.134Z,52.97
2018-05-21T03:49:49.460Z,52.93
2018-05-21T03:50:52.789Z,52.88
2018-05-21T03:51:56.112Z,52.84
2018-05-21T03:52:59.423Z,52.76
2018-05-21T03:54:02.731Z,52.71
2018-05-21T03:55:06.043Z,52.68
2018-05-21T03:56:09.366Z,52.64
2018-05-21T03:57:12.686Z,52.60
2018-05-21T03:58:27.911Z,52.58
2018-05-21T03:59:42.858Z,52.61
2018-05-21T04:00:57.893Z,52.67
2018-05-21T04:02:12.993Z,52.69
2018-05-21T04:03:28.176Z,52.68
2018-05-21T04:04:32.481Z,52.69
2018-05-21T04:05:35.712Z,52.67
2018-05-21T04:06:39.025Z,52.62
2018-05-21T04:07:42.354Z,52.61
2018-05-21T04:08:45.728Z,52.56
2018-05-21T04:09:49.035Z,52.54
2018-05-21T04:10:52.355Z,52.54
2018-05-21T04:11:55.743Z,52.55
2018-05-21T04:12:59.421Z,52.55
2018-05-21T04:14:03.070Z,52.55
2018-05-21T04:15:06.374Z,52.54
2018-05-21T04:16:09.691Z,52.54
2018-05-21T04:17:13.324Z,52.54
2018-05-21T04:18:16.649Z,52.55
2018-05-21T04:19:19.950Z,52.55
2018-05-21T04:20:23.259Z,52.52
2018-05-21T04:21:26.571Z,52.50
2018-05-21T04:22:29.884Z,52.49
2018-05-21T04:23:33.209Z,52.47
2018-05-21T04:24:36.518Z,52.47
2018-05-21T04:25:39.841Z,52.48
2018-05-21T04:26:43.141Z,52.48
2018-05-21T04:27:46.452Z,52.45
2018-05-21T04:28:49.781Z,52.40
2018-05-21T04:29:53.091Z,52.36
2018-05-21T04:30:56.391Z,52.32
2018-05-21T04:31:59.706Z,52.26
2018-05-21T04:33:03.014Z,52.22
2018-05-21T04:34:06.339Z,52.18
2018-05-21T04:35:09.658Z,52.13
2018-05-21T04:36:12.961Z,52.07
2018-05-21T04:37:16.273Z,51.99
2018-05-21T04:38:19.582Z,51.88
2018-05-21T04:39:22.928Z,51.78
2018-05-21T04:40:26.239Z,51.71
2018-05-21T04:41:29.540Z,51.65
2018-05-21T04:42:33.013Z,51.56
2018-05-21T04:43:36.343Z,51.52
2018-05-21T04:44:39.690Z,51.49
2018-05-21T04:45:42.998Z,51.45
2018-05-21T04:46:46.295Z,51.37
2018-05-21T04:47:49.599Z,51.33
2018-05-21T04:48:52.909Z,51.32
2018-05-21T04:49:56.249Z,51.28
2018-05-21T04:50:59.554Z,51.23
2018-05-21T04:52:02.866Z,51.15
2018-05-21T04:53:06.179Z,51.12
2018-05-21T04:54:09.485Z,51.10
2018-05-21T04:55:12.809Z,50.99
2018-05-21T04:56:16.121Z,50.96
2018-05-21T04:57:19.435Z,50.89
2018-05-21T04:58:22.763Z,50.81
2018-05-21T04:59:26.062Z,50.69
2018-05-21T05:00:29.401Z,50.60
2018-05-21T05:01:32.719Z,50.47
2018-05-21T05:02:36.026Z,50.28
2018-05-21T05:03:39.340Z,50.12
2018-05-21T05:04:42.641Z,50.05
2018-05-21T05:05:45.968Z,49.95
2018-05-21T05:06:49.304Z,49.86
2018-05-21T05:07:52.621Z,49.72
2018-05-21T05:08:56.013Z,49.56
2018-05-21T05:09:59.319Z,49.42
2018-05-21T05:11:02.659Z,49.31
2018-05-21T05:12:05.970Z,49.23
2018-05-21T05:13:09.400Z,49.12
2018-05-21T05:14:12.727Z,48.97
2018-05-21T05:15:16.043Z,48.81
2018-05-21T05:16:19.378Z,48.57
2018-05-21T05:17:22.677Z,48.33
2018-05-21T05:18:25.975Z,48.05
2018-05-21T05:19:29.430Z,47.84
2018-05-21T05:20:32.738Z,47.48
2018-05-21T05:21:36.080Z,47.01
2018-05-21T05:22:39.391Z,46.83
2018-05-21T05:23:42.698Z,46.71
2018-05-21T05:24:46.021Z,46.65
2018-05-21T05:25:49.324Z,46.62
2018-05-21T05:26:52.650Z,46.55
2018-05-21T05:27:55.984Z,46.55
2018-05-21T05:28:59.297Z,46.59
2018-05-21T05:30:02.610Z,46.61
2018-05-21T05:31:05.907Z,46.56
2018-05-21T05:32:09.251Z,46.43
2018-05-21T05:33:12.562Z,46.33
2018-05-21T05:34:15.866Z,46.26
2018-05-21T05:35:19.179Z,46.23
2018-05-21T05:36:22.489Z,46.24
2018-05-21T05:37:25.800Z,46.18
2018-05-21T05:38:29.113Z,46.14
2018-05-21T05:39:32.426Z,46.15
2018-05-21T05:40:35.731Z,46.13
2018-05-21T05:41:39.032Z,46.12
2018-05-21T05:42:42.355Z,46.19
2018-05-21T05:43:45.659Z,46.23
2018-05-21T05:44:48.975Z,46.19
2018-05-21T05:45:52.272Z,46.12
2018-05-21T05:46:55.595Z,46.08
2018-05-21T05:47:58.954Z,46.05
2018-05-21T05:49:02.264Z,46.07
2018-05-21T05:50:05.579Z,46.12
2018-05-21T05:51:08.897Z,46.16
2018-05-21T05:52:12.205Z,46.20
2018-05-21T05:53:15.538Z,46.29
2018-05-21T05:54:18.843Z,46.39
2018-05-21T05:55:22.155Z,46.50
2018-05-21T05:56:25.525Z,46.58
2018-05-21T05:57:28.768Z,46.64
2018-05-21T05:58:32.093Z,46.75
2018-05-21T05:59:35.423Z,46.83
2018-05-21T06:00:38.718Z,46.88
2018-05-21T06:01:42.038Z,46.90
2018-05-21T06:02:45.334Z,46.90
2018-05-21T06:03:48.666Z,46.91
2018-05-21T06:04:51.975Z,46.68
2018-05-21T06:05:55.306Z,46.42
2018-05-21T06:06:58.623Z,46.03
2018-05-21T06:08:01.933Z,45.67
2018-05-21T06:09:05.264Z,45.36
2018-05-21T06:10:08.589Z,45.13
2018-05-21T06:11:11.908Z,45.05
2018-05-21T06:12:15.263Z,44.99
2018-05-21T06:13:18.613Z,44.87
2018-05-21T06:14:21.957Z,44.74
2018-05-21T06:15:25.245Z,44.52
2018-05-21T06:16:28.567Z,44.33
2018-05-21T06:17:31.875Z,44.19
2018-05-21T06:18:35.190Z,44.07
2018-05-21T06:19:38.524Z,44.04
2018-05-21T06:20:41.841Z,44.05
2018-05-21T06:21:45.148Z,44.09
2018-05-21T06:22:48.451Z,44.09
2018-05-21T06:23:51.762Z,44.06
2018-05-21T06:24:55.099Z,44.00
2018-05-21T06:25:58.467Z,43.84
2018-05-21T06:27:01.735Z,43.65
2018-05-21T06:28:05.049Z,43.46
2018-05-21T06:29:08.373Z,43.38
2018-05-21T06:30:11.718Z,43.38
2018-05-21T06:31:15.042Z,43.42
2018-05-21T06:32:18.356Z,43.47
2018-05-21T06:33:21.677Z,43.56
2018-05-21T06:34:25.118Z,43.61
2018-05-21T06:35:28.347Z,43.62
2018-05-21T06:36:31.668Z,43.63
2018-05-21T06:37:34.978Z,43.65
2018-05-21T06:38:38.304Z,43.69
2018-05-21T06:39:41.627Z,43.76
2018-05-21T06:40:44.967Z,43.78
2018-05-21T06:41:48.373Z,43.69
2018-05-21T06:42:51.622Z,43.60
2018-05-21T06:43:54.943Z,43.53
2018-05-21T06:44:58.250Z,43.42
2018-05-21T06:46:01.606Z,43.27
2018-05-21T06:47:04.909Z,43.11
2018-05-21T06:48:08.222Z,42.86
2018-05-21T06:49:11.811Z,42.37
2018-05-21T06:50:15.132Z,41.96
2018-05-21T06:51:18.459Z,41.39
2018-05-21T06:52:21.786Z,40.92
2018-05-21T06:53:25.101Z,40.45
2018-05-21T06:54:28.415Z,40.08
2018-05-21T06:55:31.714Z,39.56
2018-05-21T06:56:35.211Z,39.12
2018-05-21T06:57:38.535Z,38.66
2018-05-21T06:58:41.916Z,38.47
2018-05-21T06:59:45.248Z,38.22
2018-05-21T07:00:48.530Z,38.17
2018-05-21T07:01:51.875Z,38.10
2018-05-21T07:02:55.178Z,38.05
2018-05-21T07:03:58.506Z,37.98
2018-05-21T07:05:01.825Z,37.97
2018-05-21T07:06:05.189Z,38.04
2018-05-21T07:07:08.580Z,38.14
2018-05-21T07:08:12.068Z,38.09
2018-05-21T07:09:15.361Z,38.12
2018-05-21T07:10:18.707Z,38.09
2018-05-21T07:11:22.022Z,38.16
2018-05-21T07:12:25.370Z,38.27
2018-05-21T07:13:28.867Z,38.42
2018-05-21T07:14:32.164Z,38.69
2018-05-21T07:15:35.475Z,38.86
2018-05-21T07:16:38.799Z,39.00
2018-05-21T07:17:42.139Z,39.17
2018-05-21T07:18:45.454Z,39.33
2018-05-21T07:19:48.768Z,39.47
2018-05-21T07:20:52.071Z,39.54
2018-05-21T07:21:55.387Z,39.52
2018-05-21T07:22:58.715Z,39.63
2018-05-21T07:24:02.027Z,39.76
2018-05-21T07:25:05.347Z,39.92
2018-05-21T07:26:08.652Z,40.01
2018-05-21T07:27:11.962Z,39.99
2018-05-21T07:28:15.301Z,40.12
2018-05-21T07:29:18.606Z,40.30
2018-05-21T07:30:21.930Z,40.40
2018-05-21T07:31:25.268Z,40.50
2018-05-21T07:32:28.571Z,40.68
2018-05-21T07:33:31.915Z,40.83
2018-05-21T07:34:35.268Z,40.84
2018-05-21T07:35:38.581Z,40.75
2018-05-21T07:36:41.893Z,40.56
2018-05-21T07:37:45.201Z,40.38
2018-05-21T07:38:48.605Z,40.27
2018-05-21T07:39:51.871Z,40.14
2018-05-21T07:40:55.177Z,40.18
2018-05-21T07:41:58.489Z,40.26
2018-05-21T07:43:01.786Z,40.38
2018-05-21T07:44:05.108Z,40.44
2018-05-21T07:45:08.410Z,40.49
2018-05-21T07:46:11.740Z,40.60
2018-05-21T07:47:15.044Z,40.62
2018-05-21T07:48:18.351Z,40.58
2018-05-21T07:49:21.698Z,40.58
2018-05-21T07:50:25.004Z,40.61
2018-05-21T07:51:28.399Z,40.62
2018-05-21T07:52:31.690Z,40.67
2018-05-21T07:53:35.022Z,40.62
2018-05-21T07:54:38.421Z,40.66
2018-05-21T07:55:41.741Z,40.74
2018-05-21T07:56:45.065Z,40.79
2018-05-21T07:57:48.374Z,40.71
2018-05-21T07:58:51.699Z,40.75
2018-05-21T07:59:55.032Z,40.79
2018-05-21T08:00:58.343Z,40.72
2018-05-21T08:02:01.674Z,40.69
2018-05-21T08:03:04.983Z,40.73
2018-05-21T08:04:08.281Z,40.74
2018-05-21T08:05:11.621Z,40.78
2018-05-21T08:06:14.919Z,40.71
2018-05-21T08:07:18.246Z,40.69
2018-05-21T08:08:21.557Z,40.54
2018-05-21T08:09:24.855Z,40.41
2018-05-21T08:10:28.207Z,40.27
2018-05-21T08:11:31.506Z,40.33
2018-05-21T08:12:34.822Z,40.34
2018-05-21T08:13:38.458Z,40.43
2018-05-21T08:14:41.779Z,40.42
2018-05-21T08:15:45.074Z,40.46
2018-05-21T08:16:48.395Z,40.53
2018-05-21T08:17:51.704Z,40.55
2018-05-21T08:18:55.007Z,40.66
2018-05-21T08:19:58.315Z,40.48
2018-05-21T08:21:01.643Z,40.28
2018-05-21T08:22:05.019Z,40.00
2018-05-21T08:23:08.310Z,39.68
2018-05-21T08:24:11.620Z,39.33
2018-05-21T08:25:14.926Z,39.05
2018-05-21T08:26:18.266Z,38.84
2018-05-21T08:27:21.580Z,38.59
2018-05-21T08:28:24.887Z,38.45
2018-05-21T08:29:28.221Z,38.39
2018-05-21T08:30:31.503Z,38.17
2018-05-21T08:31:34.828Z,37.85
2018-05-21T08:32:38.179Z,37.76
2018-05-21T08:33:41.779Z,37.77
2018-05-21T08:34:45.352Z,37.80
2018-05-21T08:35:48.672Z,37.84
2018-05-21T08:36:52.013Z,37.96
2018-05-21T08:37:55.318Z,38.04
2018-05-21T08:38:58.634Z,37.86
2018-05-21T08:40:01.974Z,37.76
2018-05-21T08:41:05.676Z,37.64
2018-05-21T08:42:08.995Z,37.19
2018-05-21T08:43:12.291Z,37.16
2018-05-21T08:44:15.606Z,37.09
2018-05-21T08:45:18.923Z,37.05
2018-05-21T08:46:22.247Z,37.04
2018-05-21T08:47:25.624Z,37.08
2018-05-21T08:48:28.981Z,37.13
2018-05-21T08:49:32.266Z,37.12
2018-05-21T08:50:35.567Z,37.19
2018-05-21T08:51:38.888Z,37.23
2018-05-21T08:52:42.219Z,37.13
2018-05-21T08:53:45.527Z,37.25
2018-05-21T08:54:48.863Z,37.30
2018-05-21T08:55:52.169Z,37.00
2018-05-21T08:56:55.478Z,36.63
2018-05-21T08:57:58.818Z,36.48
2018-05-21T08:59:02.119Z,36.57
2018-05-21T09:00:05.430Z,36.70
2018-05-21T09:01:08.743Z,36.82
2018-05-21T09:02:12.055Z,36.79
2018-05-21T09:03:15.373Z,36.84
2018-05-21T09:04:18.703Z,37.04
2018-05-21T09:05:22.009Z,37.03
2018-05-21T09:06:25.328Z,36.88
2018-05-21T09:07:28.637Z,36.89
2018-05-21T09:08:32.062Z,36.80
2018-05-21T09:09:35.371Z,36.86
2018-05-21T09:10:38.715Z,36.91
2018-05-21T09:11:42.059Z,36.92
2018-05-21T09:12:45.381Z,36.96
2018-05-21T09:13:48.949Z,37.06
2018-05-21T09:14:52.296Z,37.06
2018-05-21T09:15:55.628Z,37.03
2018-05-21T09:16:58.959Z,37.10
2018-05-21T09:18:02.273Z,37.16
2018-05-21T09:19:05.623Z,37.10
2018-05-21T09:20:08.943Z,37.06
2018-05-21T09:21:12.246Z,37.04
2018-05-21T09:22:15.583Z,37.01
2018-05-21T09:23:18.891Z,36.99
2018-05-21T09:24:22.219Z,37.03
2018-05-21T09:25:25.527Z,37.06
2018-05-21T09:26:28.831Z,37.12
2018-05-21T09:27:32.150Z,37.04
2018-05-21T09:28:35.452Z,36.95
2018-05-21T09:29:38.797Z,37.00
2018-05-21T09:30:42.122Z,36.97
2018-05-21T09:31:45.428Z,36.95
2018-05-21T09:32:48.738Z,37.01
2018-05-21T09:33:52.071Z,37.09
2018-05-21T09:34:55.523Z,37.15
2018-05-21T09:35:58.849Z,37.21
2018-05-21T09:37:02.165Z,36.95
2018-05-21T09:38:05.471Z,36.63
2018-05-21T09:39:08.779Z,36.50
2018-05-21T09:40:12.114Z,36.10
2018-05-21T09:41:15.422Z,36.07
2018-05-21T09:42:18.760Z,36.20
2018-05-21T09:43:22.069Z,36.32
2018-05-21T09:44:25.372Z,36.47
2018-05-21T09:45:28.722Z,36.69
2018-05-21T09:46:32.124Z,36.75
2018-05-21T09:47:35.434Z,36.83
2018-05-21T09:48:38.826Z,36.75
2018-05-21T09:49:42.078Z,36.72
2018-05-21T09:50:45.426Z,36.71
2018-05-21T09:51:48.743Z,36.84
2018-05-21T09:52:52.055Z,36.76
2018-05-21T09:53:55.387Z,36.49
2018-05-21T09:54:58.702Z,35.93
2018-05-21T09:56:02.050Z,35.69
2018-05-21T09:57:05.366Z,35.41
2018-05-21T09:58:08.666Z,35.18
2018-05-21T09:59:11.983Z,35.15
2018-05-21T10:00:17.191Z,35.20
2018-05-21T10:01:20.526Z,35.31
2018-05-21T10:02:23.831Z,35.34
2018-05-21T10:03:27.145Z,35.40
2018-05-21T10:04:30.443Z,35.49
2018-05-21T10:05:33.752Z,35.47
2018-05-21T10:06:37.108Z,35.41
2018-05-21T10:07:40.403Z,35.29
2018-05-21T10:08:43.709Z,35.14
2018-05-21T10:09:47.053Z,35.02
2018-05-21T10:10:50.356Z,34.84
2018-05-21T10:11:53.719Z,34.79
2018-05-21T10:12:57.006Z,34.84
2018-05-21T10:14:00.471Z,34.64
2018-05-21T10:15:03.784Z,34.59
2018-05-21T10:16:07.106Z,34.37
2018-05-21T10:17:10.459Z,34.28
2018-05-21T10:18:13.761Z,34.29
2018-05-21T10:19:17.172Z,33.97
2018-05-21T10:20:20.471Z,33.79
2018-05-21T10:21:23.822Z,33.81
2018-05-21T10:22:27.456Z,33.87
2018-05-21T10:23:30.766Z,33.92
2018-05-21T10:24:34.066Z,33.94
2018-05-21T10:25:37.411Z,33.91
2018-05-21T10:26:40.715Z,33.85
2018-05-21T10:27:44.051Z,33.83
2018-05-21T10:28:47.420Z,33.82
2018-05-21T10:29:50.736Z,33.70
2018-05-21T10:30:54.056Z,33.60
2018-05-21T10:31:57.362Z,33.46
2018-05-21T10:33:00.697Z,33.38
2018-05-21T10:34:04.026Z,33.29
2018-05-21T10:35:07.439Z,33.29
2018-05-21T10:36:10.863Z,33.34
2018-05-21T10:37:14.209Z,33.35
2018-05-21T10:38:17.554Z,33.41
2018-05-21T10:39:20.928Z,33.42
2018-05-21T10:40:24.263Z,33.27
2018-05-21T10:41:27.570Z,33.24
2018-05-21T10:42:30.901Z,33.17
2018-05-21T10:43:34.219Z,33.17
2018-05-21T10:44:37.532Z,33.22
2018-05-21T10:45:40.840Z,33.08
2018-05-21T10:46:44.164Z,33.05
2018-05-21T10:47:47.469Z,32.88
2018-05-21T10:48:50.803Z,32.81
2018-05-21T10:49:54.102Z,32.76
2018-05-21T10:50:57.430Z,32.76
2018-05-21T10:52:00.749Z,32.71
2018-05-21T10:53:04.058Z,32.68
2018-05-21T10:54:07.388Z,32.65
2018-05-21T10:55:10.687Z,32.64
2018-05-21T10:56:14.011Z,32.60
2018-05-21T10:57:17.315Z,32.64
2018-05-21T10:58:20.669Z,32.71
2018-05-21T10:59:23.971Z,32.72
2018-05-21T11:00:27.305Z,32.75
2018-05-21T11:01:30.616Z,32.63
2018-05-21T11:02:33.926Z,32.41
2018-05-21T11:03:37.255Z,32.33
2018-05-21T11:04:40.610Z,32.35
2018-05-21T11:05:43.899Z,32.22
2018-05-21T11:06:47.210Z,32.22
2018-05-21T11:07:50.899Z,32.26
2018-05-21T11:08:54.196Z,32.17
2018-05-21T11:09:57.575Z,32.30
2018-05-21T11:11:00.879Z,32.42
2018-05-21T11:12:04.234Z,32.46
2018-05-21T11:13:07.498Z,32.31
2018-05-21T11:14:11.030Z,32.11
2018-05-21T11:15:14.454Z,31.99
2018-05-21T11:16:17.775Z,31.99
2018-05-21T11:17:21.093Z,31.95
2018-05-21T11:18:24.406Z,31.98
2018-05-21T11:19:27.711Z,32.10
2018-05-21T11:20:31.047Z,32.07
2018-05-21T11:21:34.371Z,32.08
2018-05-21T11:22:37.693Z,32.02
2018-05-21T11:23:40.995Z,31.82
2018-05-21T11:24:44.347Z,31.72
2018-05-21T11:25:47.961Z,31.18
2018-05-21T11:26:51.375Z,31.06
2018-05-21T11:27:54.662Z,31.10
2018-05-21T11:28:57.968Z,31.35
2018-05-21T11:30:01.292Z,31.56
2018-05-21T11:31:04.612Z,31.63
2018-05-21T11:32:07.919Z,31.76
2018-05-21T11:33:11.251Z,31.81
2018-05-21T11:34:14.567Z,31.58
2018-05-21T11:35:17.855Z,31.26
2018-05-21T11:36:21.221Z,30.86
2018-05-21T11:37:24.532Z,30.74
2018-05-21T11:38:27.843Z,30.71
2018-05-21T11:39:31.155Z,30.61
2018-05-21T11:40:34.463Z,30.53
2018-05-21T11:41:37.803Z,30.47
2018-05-21T11:42:41.107Z,30.37
2018-05-21T11:43:44.444Z,30.21
2018-05-21T11:44:47.795Z,30.00
2018-05-21T11:45:51.102Z,29.97
2018-05-21T11:46:54.654Z,29.95
2018-05-21T11:47:57.969Z,29.90
2018-05-21T11:49:01.281Z,29.77
2018-05-21T11:50:04.587Z,29.87
2018-05-21T11:51:07.905Z,29.75
2018-05-21T11:52:11.232Z,29.76
2018-05-21T11:53:14.555Z,29.70
2018-05-21T11:54:17.876Z,29.74
2018-05-21T11:55:21.212Z,29.69
2018-05-21T11:56:24.510Z,29.82
2018-05-21T11:57:27.849Z,29.86
2018-05-21T11:58:31.164Z,29.76
2018-05-21T11:59:34.467Z,29.74
2018-05-21T12:00:37.791Z,29.71
2018-05-21T12:01:41.119Z,29.69
2018-05-21T12:02:44.458Z,29.67
2018-05-21T12:03:47.739Z,29.76
2018-05-21T12:04:51.056Z,29.79
2018-05-21T12:05:54.374Z,29.80
2018-05-21T12:06:57.695Z,29.69
2018-05-21T12:08:01.046Z,29.66
2018-05-21T12:09:04.343Z,29.64
2018-05-21T12:10:07.650Z,29.57
2018-05-21T12:11:10.958Z,29.58
2018-05-21T12:12:14.263Z,29.60
2018-05-21T12:13:17.608Z,29.53
2018-05-21T12:14:20.947Z,29.38
2018-05-21T12:15:24.507Z,29.30
2018-05-21T12:16:28.222Z,29.10
2018-05-21T12:17:31.590Z,28.92
2018-05-21T12:18:34.872Z,28.53
2018-05-21T12:19:38.199Z,28.36
2018-05-21T12:20:41.529Z,28.32
2018-05-21T12:21:44.842Z,28.34
2018-05-21T12:22:48.191Z,28.38
2018-05-21T12:23:51.528Z,28.39
2018-05-21T12:24:54.827Z,28.41
2018-05-21T12:25:58.146Z,28.49
2018-05-21T12:27:01.472Z,28.49
2018-05-21T12:28:04.787Z,28.13
2018-05-21T12:29:08.207Z,28.19
2018-05-21T12:30:11.516Z,28.21
2018-05-21T12:31:14.830Z,28.04
2018-05-21T12:32:18.169Z,27.96
2018-05-21T12:33:21.487Z,27.92
2018-05-21T12:34:24.811Z,27.90
2018-05-21T12:35:28.112Z,27.94
2018-05-21T12:36:31.418Z,27.64
2018-05-21T12:37:34.725Z,27.37
2018-05-21T12:38:38.054Z,27.31
2018-05-21T12:39:41.383Z,27.45
2018-05-21T12:40:44.687Z,27.58
2018-05-21T12:41:47.992Z,27.81
2018-05-21T12:42:51.289Z,27.95
2018-05-21T12:43:54.595Z,28.04
2018-05-21T12:44:57.915Z,28.12
2018-05-21T12:46:01.238Z,28.23
2018-05-21T12:47:04.568Z,28.20
2018-05-21T12:48:07.873Z,28.13
2018-05-21T12:49:11.197Z,27.96
2018-05-21T12:50:14.526Z,27.93
2018-05-21T12:51:17.883Z,27.48
2018-05-21T12:52:21.250Z,27.21
2018-05-21T12:53:24.703Z,27.19
2018-05-21T12:54:28.194Z,27.14
2018-05-21T12:55:31.527Z,26.98
2018-05-21T12:56:34.842Z,26.94
2018-05-21T12:57:38.150Z,27.06
2018-05-21T12:58:41.450Z,27.19
2018-05-21T12:59:44.747Z,27.22
2018-05-21T13:00:48.084Z,27.18
2018-05-21T13:01:51.384Z,27.14
2018-05-21T13:02:54.705Z,27.22
2018-05-21T13:03:58.010Z,27.14
2018-05-21T13:05:01.376Z,27.13
2018-05-21T13:06:04.689Z,27.09
2018-05-21T13:07:07.984Z,27.02
2018-05-21T13:08:11.299Z,26.98
2018-05-21T13:09:14.601Z,27.03
2018-05-21T13:10:17.920Z,26.98
2018-05-21T13:11:21.290Z,26.98
2018-05-21T13:12:24.593Z,27.01
2018-05-21T13:13:27.901Z,26.90
2018-05-21T13:14:31.299Z,26.83
2018-05-21T13:15:34.599Z,26.84
2018-05-21T13:16:37.927Z,26.80
2018-05-21T13:17:41.247Z,26.70
2018-05-21T13:18:44.555Z,26.46
2018-05-21T13:19:47.869Z,26.26
2018-05-21T13:20:51.166Z,26.03
2018-05-21T13:21:54.491Z,25.90
2018-05-21T13:22:57.804Z,25.72
2018-05-21T13:24:01.151Z,25.59
2018-05-21T13:25:04.408Z,25.41
2018-05-21T13:26:07.717Z,25.37
2018-05-21T13:27:11.087Z,25.34
2018-05-21T13:28:14.390Z,25.44
2018-05-21T13:29:17.686Z,25.51
2018-05-21T13:30:21.023Z,25.58
2018-05-21T13:31:24.322Z,25.61
2018-05-21T13:32:27.647Z,25.63
2018-05-21T13:33:30.975Z,25.57
2018-05-21T13:34:34.359Z,25.54
2018-05-21T13:35:37.601Z,25.59
2018-05-21T13:36:40.916Z,25.64